sensor_id;sensor_type;location;lat;lon;timestamp;temperature;humidity
6738;DHT22;3406;49.902;8.596;2023-03-01T00:02:14;0.60;58.60
6738;DHT22;3406;49.902;8.596;2023-03-01T00:04:40;0.60;58.60
6738;DHT22;3406;49.902;8.596;2023-03-01T00:07:08;0.60;58.70
6738;DHT22;3406;49.902;8.596;2023-03-01T00:09:36;0.60;58.90
6738;DHT22;3406;49.902;8.596;2023-03-01T00:12:03;0.50;58.90
6738;DHT22;3406;49.902;8.596;2023-03-01T00:14:30;0.60;59.00
6738;DHT22;3406;49.902;8.596;2023-03-01T00:16:56;0.50;59.00
6738;DHT22;3406;49.902;8.596;2023-03-01T00:19:23;0.50;59.00
6738;DHT22;3406;49.902;8.596;2023-03-01T00:21:50;0.50;59.10
6738;DHT22;3406;49.902;8.596;2023-03-01T00:24:18;0.50;59.20
6738;DHT22;3406;49.902;8.596;2023-03-01T00:26:45;0.60;59.20
6738;DHT22;3406;49.902;8.596;2023-03-01T00:29:12;0.60;59.20
6738;DHT22;3406;49.902;8.596;2023-03-01T00:31:38;0.60;59.30
6738;DHT22;3406;49.902;8.596;2023-03-01T00:34:05;0.60;59.30
6738;DHT22;3406;49.902;8.596;2023-03-01T00:36:33;0.60;59.30
6738;DHT22;3406;49.902;8.596;2023-03-01T00:39:01;0.50;59.20
6738;DHT22;3406;49.902;8.596;2023-03-01T00:41:30;0.50;59.30
6738;DHT22;3406;49.902;8.596;2023-03-01T00:43:56;0.50;59.30
6738;DHT22;3406;49.902;8.596;2023-03-01T00:46:26;0.50;59.40
6738;DHT22;3406;49.902;8.596;2023-03-01T00:48:55;0.50;59.40
6738;DHT22;3406;49.902;8.596;2023-03-01T00:51:24;0.50;59.40
6738;DHT22;3406;49.902;8.596;2023-03-01T00:53:52;0.50;59.50
6738;DHT22;3406;49.902;8.596;2023-03-01T00:56:19;0.50;59.50
6738;DHT22;3406;49.902;8.596;2023-03-01T00:58:47;0.40;59.40
6738;DHT22;3406;49.902;8.596;2023-03-01T01:01:16;0.40;59.50
6738;DHT22;3406;49.902;8.596;2023-03-01T01:03:47;0.40;59.50
6738;DHT22;3406;49.902;8.596;2023-03-01T01:06:19;0.50;59.60
6738;DHT22;3406;49.902;8.596;2023-03-01T01:08:47;0.40;59.60
6738;DHT22;3406;49.902;8.596;2023-03-01T01:11:14;0.40;59.60
6738;DHT22;3406;49.902;8.596;2023-03-01T01:13:41;0.40;59.60
6738;DHT22;3406;49.902;8.596;2023-03-01T01:16:09;0.40;59.60
6738;DHT22;3406;49.902;8.596;2023-03-01T01:18:36;0.40;59.60
6738;DHT22;3406;49.902;8.596;2023-03-01T01:21:04;0.40;59.60
6738;DHT22;3406;49.902;8.596;2023-03-01T01:23:32;0.30;59.60
6738;DHT22;3406;49.902;8.596;2023-03-01T01:26:04;0.30;59.60
6738;DHT22;3406;49.902;8.596;2023-03-01T01:28:31;0.30;59.80
6738;DHT22;3406;49.902;8.596;2023-03-01T01:30:58;0.30;59.80
6738;DHT22;3406;49.902;8.596;2023-03-01T01:33:26;0.20;59.80
6738;DHT22;3406;49.902;8.596;2023-03-01T01:35:53;0.20;59.80
6738;DHT22;3406;49.902;8.596;2023-03-01T01:38:20;0.20;59.90
6738;DHT22;3406;49.902;8.596;2023-03-01T01:40:48;0.20;60.00
6738;DHT22;3406;49.902;8.596;2023-03-01T01:43:19;0.10;60.00
6738;DHT22;3406;49.902;8.596;2023-03-01T01:45:47;0.10;60.10
6738;DHT22;3406;49.902;8.596;2023-03-01T01:48:16;0.20;60.20
6738;DHT22;3406;49.902;8.596;2023-03-01T01:50:56;0.10;60.20
6738;DHT22;3406;49.902;8.596;2023-03-01T01:53:26;0.10;60.30
6738;DHT22;3406;49.902;8.596;2023-03-01T01:55:57;0.10;60.30
6738;DHT22;3406;49.902;8.596;2023-03-01T01:58:25;0.10;60.30
6738;DHT22;3406;49.902;8.596;2023-03-01T02:00:54;0.10;60.50
6738;DHT22;3406;49.902;8.596;2023-03-01T02:03:25;0.10;60.60
6738;DHT22;3406;49.902;8.596;2023-03-01T02:06:00;0.10;60.80
6738;DHT22;3406;49.902;8.596;2023-03-01T02:08:32;0.10;60.80
6738;DHT22;3406;49.902;8.596;2023-03-01T02:11:00;0.10;60.90
6738;DHT22;3406;49.902;8.596;2023-03-01T02:13:30;0.10;61.00
6738;DHT22;3406;49.902;8.596;2023-03-01T02:15:57;0.10;61.00
6738;DHT22;3406;49.902;8.596;2023-03-01T02:18:24;0.10;61.10
6738;DHT22;3406;49.902;8.596;2023-03-01T02:21:04;0.10;61.10
6738;DHT22;3406;49.902;8.596;2023-03-01T02:23:34;0.10;61.20
6738;DHT22;3406;49.902;8.596;2023-03-01T02:26:05;0.10;61.30
6738;DHT22;3406;49.902;8.596;2023-03-01T02:28:36;0.10;61.40
6738;DHT22;3406;49.902;8.596;2023-03-01T02:31:05;0.10;61.40
6738;DHT22;3406;49.902;8.596;2023-03-01T02:33:51;0.10;61.50
6738;DHT22;3406;49.902;8.596;2023-03-01T02:36:21;0.10;61.50
6738;DHT22;3406;49.902;8.596;2023-03-01T02:38:50;0.10;61.50
6738;DHT22;3406;49.902;8.596;2023-03-01T02:41:19;0.10;62.30
6738;DHT22;3406;49.902;8.596;2023-03-01T02:43:48;0.10;61.60
6738;DHT22;3406;49.902;8.596;2023-03-01T02:46:16;0.10;61.60
6738;DHT22;3406;49.902;8.596;2023-03-01T02:48:45;0.20;62.50
6738;DHT22;3406;49.902;8.596;2023-03-01T02:51:29;0.20;61.90
6738;DHT22;3406;49.902;8.596;2023-03-01T02:54:08;0.20;61.90
6738;DHT22;3406;49.902;8.596;2023-03-01T02:56:36;0.20;62.00
6738;DHT22;3406;49.902;8.596;2023-03-01T02:59:04;0.10;61.90
6738;DHT22;3406;49.902;8.596;2023-03-01T03:01:31;0.20;62.20
6738;DHT22;3406;49.902;8.596;2023-03-01T03:04:04;0.20;62.20
6738;DHT22;3406;49.902;8.596;2023-03-01T03:06:30;0.20;62.30
6738;DHT22;3406;49.902;8.596;2023-03-01T03:08:57;0.20;62.30
6738;DHT22;3406;49.902;8.596;2023-03-01T03:11:24;0.20;62.30
6738;DHT22;3406;49.902;8.596;2023-03-01T03:13:51;0.20;62.40
6738;DHT22;3406;49.902;8.596;2023-03-01T03:16:19;0.20;62.50
6738;DHT22;3406;49.902;8.596;2023-03-01T03:18:47;0.20;62.70
6738;DHT22;3406;49.902;8.596;2023-03-01T03:21:14;0.20;62.60
6738;DHT22;3406;49.902;8.596;2023-03-01T03:23:42;0.20;62.60
6738;DHT22;3406;49.902;8.596;2023-03-01T03:26:09;0.20;62.60
6738;DHT22;3406;49.902;8.596;2023-03-01T03:28:40;0.20;62.60
6738;DHT22;3406;49.902;8.596;2023-03-01T03:31:07;0.20;62.60
6738;DHT22;3406;49.902;8.596;2023-03-01T03:33:35;0.30;63.00
6738;DHT22;3406;49.902;8.596;2023-03-01T03:39:25;0.30;63.00
6738;DHT22;3406;49.902;8.596;2023-03-01T03:41:52;0.30;63.00
6738;DHT22;3406;49.902;8.596;2023-03-01T03:44:18;0.30;63.00
6738;DHT22;3406;49.902;8.596;2023-03-01T03:46:45;0.30;63.00
6738;DHT22;3406;49.902;8.596;2023-03-01T03:49:13;0.30;63.00
6738;DHT22;3406;49.902;8.596;2023-03-01T03:51:39;0.30;63.00
6738;DHT22;3406;49.902;8.596;2023-03-01T03:54:06;0.30;63.00
6738;DHT22;3406;49.902;8.596;2023-03-01T03:56:33;0.30;63.10
6738;DHT22;3406;49.902;8.596;2023-03-01T03:59:00;0.30;63.10
6738;DHT22;3406;49.902;8.596;2023-03-01T04:01:26;0.30;63.20
6738;DHT22;3406;49.902;8.596;2023-03-01T04:03:53;0.30;63.20
6738;DHT22;3406;49.902;8.596;2023-03-01T04:06:22;0.30;63.20
6738;DHT22;3406;49.902;8.596;2023-03-01T04:08:49;0.30;63.20
6738;DHT22;3406;49.902;8.596;2023-03-01T04:11:16;0.30;63.20
6738;DHT22;3406;49.902;8.596;2023-03-01T04:13:58;0.30;63.20
6738;DHT22;3406;49.902;8.596;2023-03-01T04:16:25;0.30;63.20
6738;DHT22;3406;49.902;8.596;2023-03-01T04:18:52;0.30;63.30
6738;DHT22;3406;49.902;8.596;2023-03-01T04:21:21;0.30;63.30
6738;DHT22;3406;49.902;8.596;2023-03-01T04:23:48;0.30;63.50
6738;DHT22;3406;49.902;8.596;2023-03-01T04:26:18;0.30;63.50
6738;DHT22;3406;49.902;8.596;2023-03-01T04:28:44;0.30;63.50
6738;DHT22;3406;49.902;8.596;2023-03-01T04:31:15;0.30;63.60
6738;DHT22;3406;49.902;8.596;2023-03-01T04:33:45;0.30;63.60
6738;DHT22;3406;49.902;8.596;2023-03-01T04:36:13;0.30;63.70
6738;DHT22;3406;49.902;8.596;2023-03-01T04:38:41;0.30;63.70
6738;DHT22;3406;49.902;8.596;2023-03-01T04:41:13;0.30;63.80
6738;DHT22;3406;49.902;8.596;2023-03-01T04:43:40;0.30;63.90
6738;DHT22;3406;49.902;8.596;2023-03-01T04:46:11;0.30;64.60
6738;DHT22;3406;49.902;8.596;2023-03-01T04:48:39;0.30;63.90
6738;DHT22;3406;49.902;8.596;2023-03-01T04:51:07;0.30;63.90
6738;DHT22;3406;49.902;8.596;2023-03-01T04:53:34;0.30;63.90
6738;DHT22;3406;49.902;8.596;2023-03-01T04:56:04;0.40;64.00
6738;DHT22;3406;49.902;8.596;2023-03-01T04:58:32;0.30;63.90
6738;DHT22;3406;49.902;8.596;2023-03-01T05:00:59;0.30;63.90
6738;DHT22;3406;49.902;8.596;2023-03-01T05:03:26;0.30;63.90
6738;DHT22;3406;49.902;8.596;2023-03-01T05:05:53;0.40;64.00
6738;DHT22;3406;49.902;8.596;2023-03-01T05:08:20;0.40;63.90
6738;DHT22;3406;49.902;8.596;2023-03-01T05:10:49;0.40;63.90
6738;DHT22;3406;49.902;8.596;2023-03-01T05:13:17;0.40;63.90
6738;DHT22;3406;49.902;8.596;2023-03-01T05:15:47;0.40;63.90
6738;DHT22;3406;49.902;8.596;2023-03-01T05:18:14;0.40;63.90
6738;DHT22;3406;49.902;8.596;2023-03-01T05:20:41;0.40;63.90
6738;DHT22;3406;49.902;8.596;2023-03-01T05:23:10;0.40;63.80
6738;DHT22;3406;49.902;8.596;2023-03-01T05:25:36;0.40;63.80
6738;DHT22;3406;49.902;8.596;2023-03-01T05:28:06;0.50;63.90
6738;DHT22;3406;49.902;8.596;2023-03-01T05:30:36;0.50;63.90
6738;DHT22;3406;49.902;8.596;2023-03-01T05:33:05;0.50;63.70
6738;DHT22;3406;49.902;8.596;2023-03-01T05:35:36;0.50;63.70
6738;DHT22;3406;49.902;8.596;2023-03-01T05:38:03;0.50;63.70
6738;DHT22;3406;49.902;8.596;2023-03-01T05:40:29;0.50;63.60
6738;DHT22;3406;49.902;8.596;2023-03-01T05:42:57;0.60;63.70
6738;DHT22;3406;49.902;8.596;2023-03-01T05:45:24;0.60;63.60
6738;DHT22;3406;49.902;8.596;2023-03-01T05:47:53;0.60;63.70
6738;DHT22;3406;49.902;8.596;2023-03-01T05:50:22;0.60;63.70
6738;DHT22;3406;49.902;8.596;2023-03-01T05:52:50;0.60;63.60
6738;DHT22;3406;49.902;8.596;2023-03-01T05:55:19;0.60;63.60
6738;DHT22;3406;49.902;8.596;2023-03-01T05:57:46;0.50;63.50
6738;DHT22;3406;49.902;8.596;2023-03-01T06:00:14;0.50;63.50
6738;DHT22;3406;49.902;8.596;2023-03-01T06:02:42;0.50;63.50
6738;DHT22;3406;49.902;8.596;2023-03-01T06:05:11;0.60;63.60
6738;DHT22;3406;49.902;8.596;2023-03-01T06:07:39;0.60;63.60
6738;DHT22;3406;49.902;8.596;2023-03-01T06:10:08;0.60;63.60
6738;DHT22;3406;49.902;8.596;2023-03-01T06:12:36;0.50;63.50
6738;DHT22;3406;49.902;8.596;2023-03-01T06:15:04;0.60;63.70
6738;DHT22;3406;49.902;8.596;2023-03-01T06:17:33;0.50;63.60
6738;DHT22;3406;49.902;8.596;2023-03-01T06:20:03;0.60;63.70
6738;DHT22;3406;49.902;8.596;2023-03-01T06:22:31;0.60;63.60
6738;DHT22;3406;49.902;8.596;2023-03-01T06:24:58;0.60;63.60
6738;DHT22;3406;49.902;8.596;2023-03-01T06:27:24;0.60;63.60
6738;DHT22;3406;49.902;8.596;2023-03-01T06:29:51;0.60;63.60
6738;DHT22;3406;49.902;8.596;2023-03-01T06:32:18;0.60;63.50
6738;DHT22;3406;49.902;8.596;2023-03-01T06:34:44;0.60;63.60
6738;DHT22;3406;49.902;8.596;2023-03-01T06:37:11;0.60;63.50
6738;DHT22;3406;49.902;8.596;2023-03-01T06:39:39;0.60;63.50
6738;DHT22;3406;49.902;8.596;2023-03-01T06:42:07;0.70;63.60
6738;DHT22;3406;49.902;8.596;2023-03-01T06:44:35;0.70;63.60
6738;DHT22;3406;49.902;8.596;2023-03-01T06:47:02;0.70;63.50
6738;DHT22;3406;49.902;8.596;2023-03-01T06:49:28;0.70;63.50
6738;DHT22;3406;49.902;8.596;2023-03-01T06:51:55;0.70;63.40
6738;DHT22;3406;49.902;8.596;2023-03-01T06:54:22;0.70;63.40
6738;DHT22;3406;49.902;8.596;2023-03-01T06:56:50;0.70;63.40
6738;DHT22;3406;49.902;8.596;2023-03-01T06:59:17;0.70;63.50
6738;DHT22;3406;49.902;8.596;2023-03-01T07:01:44;0.70;63.40
6738;DHT22;3406;49.902;8.596;2023-03-01T07:04:11;0.70;63.50
6738;DHT22;3406;49.902;8.596;2023-03-01T07:06:38;0.70;63.50
6738;DHT22;3406;49.902;8.596;2023-03-01T07:09:05;0.70;63.40
6738;DHT22;3406;49.902;8.596;2023-03-01T07:11:32;0.80;63.60
6738;DHT22;3406;49.902;8.596;2023-03-01T07:13:59;0.80;63.60
6738;DHT22;3406;49.902;8.596;2023-03-01T07:16:26;0.80;63.60
6738;DHT22;3406;49.902;8.596;2023-03-01T07:18:53;0.90;63.60
6738;DHT22;3406;49.902;8.596;2023-03-01T07:21:19;0.90;63.60
6738;DHT22;3406;49.902;8.596;2023-03-01T07:23:47;0.90;63.60
6738;DHT22;3406;49.902;8.596;2023-03-01T07:26:14;1.00;63.60
6738;DHT22;3406;49.902;8.596;2023-03-01T07:28:41;1.00;63.60
6738;DHT22;3406;49.902;8.596;2023-03-01T07:31:09;1.10;63.50
6738;DHT22;3406;49.902;8.596;2023-03-01T07:33:35;1.10;63.40
6738;DHT22;3406;49.902;8.596;2023-03-01T07:36:03;1.20;63.50
6738;DHT22;3406;49.902;8.596;2023-03-01T07:38:31;1.20;63.40
6738;DHT22;3406;49.902;8.596;2023-03-01T07:40:58;1.20;63.30
6738;DHT22;3406;49.902;8.596;2023-03-01T07:43:25;1.20;63.30
6738;DHT22;3406;49.902;8.596;2023-03-01T07:45:52;1.30;63.30
6738;DHT22;3406;49.902;8.596;2023-03-01T07:48:20;1.30;63.30
6738;DHT22;3406;49.902;8.596;2023-03-01T07:50:47;1.40;63.30
6738;DHT22;3406;49.902;8.596;2023-03-01T07:53:13;1.40;63.20
6738;DHT22;3406;49.902;8.596;2023-03-01T07:55:40;1.50;63.20
6738;DHT22;3406;49.902;8.596;2023-03-01T07:58:07;1.50;63.10
6738;DHT22;3406;49.902;8.596;2023-03-01T08:00:33;1.60;63.00
6738;DHT22;3406;49.902;8.596;2023-03-01T08:03:01;1.70;63.00
6738;DHT22;3406;49.902;8.596;2023-03-01T08:05:29;1.80;63.00
6738;DHT22;3406;49.902;8.596;2023-03-01T08:07:56;1.80;62.70
6738;DHT22;3406;49.902;8.596;2023-03-01T08:10:22;1.90;62.60
6738;DHT22;3406;49.902;8.596;2023-03-01T08:12:51;2.00;62.60
6738;DHT22;3406;49.902;8.596;2023-03-01T08:15:18;2.10;62.40
6738;DHT22;3406;49.902;8.596;2023-03-01T08:17:45;2.10;62.20
6738;DHT22;3406;49.902;8.596;2023-03-01T08:20:11;2.20;62.00
6738;DHT22;3406;49.902;8.596;2023-03-01T08:22:39;2.20;61.80
6738;DHT22;3406;49.902;8.596;2023-03-01T08:25:07;2.30;61.70
6738;DHT22;3406;49.902;8.596;2023-03-01T08:27:33;2.40;61.70
6738;DHT22;3406;49.902;8.596;2023-03-01T08:30:00;2.40;61.50
6738;DHT22;3406;49.902;8.596;2023-03-01T08:32:27;2.50;61.40
6738;DHT22;3406;49.902;8.596;2023-03-01T08:34:54;2.50;61.20
6738;DHT22;3406;49.902;8.596;2023-03-01T08:37:20;2.60;61.10
6738;DHT22;3406;49.902;8.596;2023-03-01T08:39:48;2.60;60.90
6738;DHT22;3406;49.902;8.596;2023-03-01T08:42:15;2.70;60.70
6738;DHT22;3406;49.902;8.596;2023-03-01T08:44:41;2.80;60.60
6738;DHT22;3406;49.902;8.596;2023-03-01T08:47:08;2.80;60.40
6738;DHT22;3406;49.902;8.596;2023-03-01T08:49:35;2.90;60.20
6738;DHT22;3406;49.902;8.596;2023-03-01T08:52:02;2.90;59.90
6738;DHT22;3406;49.902;8.596;2023-03-01T08:54:29;3.00;59.70
6738;DHT22;3406;49.902;8.596;2023-03-01T08:56:57;3.00;59.50
6738;DHT22;3406;49.902;8.596;2023-03-01T08:59:25;3.00;59.30
6738;DHT22;3406;49.902;8.596;2023-03-01T09:01:52;3.10;59.30
6738;DHT22;3406;49.902;8.596;2023-03-01T09:04:18;3.20;59.20
6738;DHT22;3406;49.902;8.596;2023-03-01T09:06:45;3.20;59.10
6738;DHT22;3406;49.902;8.596;2023-03-01T09:09:13;3.30;59.10
6738;DHT22;3406;49.902;8.596;2023-03-01T09:11:41;3.40;59.00
6738;DHT22;3406;49.902;8.596;2023-03-01T09:14:10;3.40;58.80
6738;DHT22;3406;49.902;8.596;2023-03-01T09:16:37;3.50;58.80
6738;DHT22;3406;49.902;8.596;2023-03-01T09:19:05;3.60;58.70
6738;DHT22;3406;49.902;8.596;2023-03-01T09:21:32;3.60;58.50
6738;DHT22;3406;49.902;8.596;2023-03-01T09:23:58;3.60;58.30
6738;DHT22;3406;49.902;8.596;2023-03-01T09:26:25;3.70;58.20
6738;DHT22;3406;49.902;8.596;2023-03-01T09:28:55;3.70;58.60
6738;DHT22;3406;49.902;8.596;2023-03-01T09:31:24;3.80;58.10
6738;DHT22;3406;49.902;8.596;2023-03-01T09:33:52;3.90;58.00
6738;DHT22;3406;49.902;8.596;2023-03-01T09:36:21;3.90;57.80
6738;DHT22;3406;49.902;8.596;2023-03-01T09:38:49;3.90;57.60
6738;DHT22;3406;49.902;8.596;2023-03-01T09:41:44;4.00;57.50
6738;DHT22;3406;49.902;8.596;2023-03-01T09:44:27;4.10;57.50
6738;DHT22;3406;49.902;8.596;2023-03-01T09:46:57;4.10;57.30
6738;DHT22;3406;49.902;8.596;2023-03-01T09:49:25;4.20;57.20
6738;DHT22;3406;49.902;8.596;2023-03-01T09:51:58;4.20;57.00
6738;DHT22;3406;49.902;8.596;2023-03-01T09:54:26;4.20;56.80
6738;DHT22;3406;49.902;8.596;2023-03-01T09:57:11;4.30;56.80
6738;DHT22;3406;49.902;8.596;2023-03-01T09:59:53;4.40;56.90
6738;DHT22;3406;49.902;8.596;2023-03-01T10:02:29;4.60;56.80
6738;DHT22;3406;49.902;8.596;2023-03-01T10:05:03;4.50;56.60
6738;DHT22;3406;49.902;8.596;2023-03-01T10:07:39;4.60;56.60
6738;DHT22;3406;49.902;8.596;2023-03-01T10:10:16;4.70;56.50
6738;DHT22;3406;49.902;8.596;2023-03-01T10:12:49;4.70;56.30
6738;DHT22;3406;49.902;8.596;2023-03-01T10:15:19;4.80;56.30
6738;DHT22;3406;49.902;8.596;2023-03-01T10:17:52;4.90;56.30
6738;DHT22;3406;49.902;8.596;2023-03-01T10:20:23;5.00;56.10
6738;DHT22;3406;49.902;8.596;2023-03-01T10:22:51;5.00;56.00
6738;DHT22;3406;49.902;8.596;2023-03-01T10:25:29;5.10;55.90
6738;DHT22;3406;49.902;8.596;2023-03-01T10:28:02;5.20;55.80
6738;DHT22;3406;49.902;8.596;2023-03-01T10:30:34;5.30;55.60
6738;DHT22;3406;49.902;8.596;2023-03-01T10:33:08;5.40;55.50
6738;DHT22;3406;49.902;8.596;2023-03-01T10:35:39;5.40;55.40
6738;DHT22;3406;49.902;8.596;2023-03-01T10:38:08;5.40;55.30
6738;DHT22;3406;49.902;8.596;2023-03-01T10:40:36;5.50;55.20
6738;DHT22;3406;49.902;8.596;2023-03-01T10:43:15;5.60;55.10
6738;DHT22;3406;49.902;8.596;2023-03-01T10:45:42;5.60;55.00
6738;DHT22;3406;49.902;8.596;2023-03-01T10:48:15;5.70;55.00
6738;DHT22;3406;49.902;8.596;2023-03-01T10:50:44;5.70;54.90
6738;DHT22;3406;49.902;8.596;2023-03-01T10:53:26;5.80;54.70
6738;DHT22;3406;49.902;8.596;2023-03-01T10:56:02;5.90;54.70
6738;DHT22;3406;49.902;8.596;2023-03-01T10:58:30;6.00;54.60
6738;DHT22;3406;49.902;8.596;2023-03-01T11:00:58;6.10;54.50
6738;DHT22;3406;49.902;8.596;2023-03-01T11:03:28;6.20;54.40
6738;DHT22;3406;49.902;8.596;2023-03-01T11:06:02;6.20;54.30
6738;DHT22;3406;49.902;8.596;2023-03-01T11:08:32;6.30;54.20
6738;DHT22;3406;49.902;8.596;2023-03-01T11:11:06;6.40;54.00
6738;DHT22;3406;49.902;8.596;2023-03-01T11:13:33;6.50;53.80
6738;DHT22;3406;49.902;8.596;2023-03-01T11:16:02;6.60;53.60
6738;DHT22;3406;49.902;8.596;2023-03-01T11:18:31;6.70;53.40
6738;DHT22;3406;49.902;8.596;2023-03-01T11:20:59;6.70;53.30
6738;DHT22;3406;49.902;8.596;2023-03-01T11:23:29;6.70;53.00
6738;DHT22;3406;49.902;8.596;2023-03-01T11:26:01;6.80;52.60
6738;DHT22;3406;49.902;8.596;2023-03-01T11:28:29;6.80;52.60
6738;DHT22;3406;49.902;8.596;2023-03-01T11:31:00;6.90;52.70
6738;DHT22;3406;49.902;8.596;2023-03-01T11:33:37;6.90;52.60
6738;DHT22;3406;49.902;8.596;2023-03-01T11:36:08;7.00;52.40
6738;DHT22;3406;49.902;8.596;2023-03-01T11:38:39;7.00;52.20
6738;DHT22;3406;49.902;8.596;2023-03-01T11:41:10;7.00;52.10
6738;DHT22;3406;49.902;8.596;2023-03-01T11:43:47;7.10;52.10
6738;DHT22;3406;49.902;8.596;2023-03-01T11:46:31;7.10;51.90
6738;DHT22;3406;49.902;8.596;2023-03-01T11:52:03;7.30;51.70
6738;DHT22;3406;49.902;8.596;2023-03-01T11:54:41;7.40;51.30
6738;DHT22;3406;49.902;8.596;2023-03-01T11:57:15;7.50;51.00
6738;DHT22;3406;49.902;8.596;2023-03-01T12:00:05;7.50;50.80
6738;DHT22;3406;49.902;8.596;2023-03-01T12:05:50;7.60;50.40
6738;DHT22;3406;49.902;8.596;2023-03-01T12:08:23;7.70;50.40
6738;DHT22;3406;49.902;8.596;2023-03-01T12:10:59;7.90;49.80
6738;DHT22;3406;49.902;8.596;2023-03-01T12:13:44;7.90;49.30
6738;DHT22;3406;49.902;8.596;2023-03-01T12:16:26;8.00;48.90
6738;DHT22;3406;49.902;8.596;2023-03-01T12:19:13;8.00;48.70
6738;DHT22;3406;49.902;8.596;2023-03-01T12:21:56;8.00;48.50
6738;DHT22;3406;49.902;8.596;2023-03-01T12:24:35;8.10;48.40
6738;DHT22;3406;49.902;8.596;2023-03-01T12:27:21;8.20;48.40
6738;DHT22;3406;49.902;8.596;2023-03-01T12:29:55;8.30;48.00
6738;DHT22;3406;49.902;8.596;2023-03-01T12:32:40;8.40;47.70
6738;DHT22;3406;49.902;8.596;2023-03-01T12:35:24;8.40;47.50
6738;DHT22;3406;49.902;8.596;2023-03-01T12:38:06;8.40;47.30
6738;DHT22;3406;49.902;8.596;2023-03-01T12:41:00;8.40;47.10
6738;DHT22;3406;49.902;8.596;2023-03-01T12:43:39;8.40;46.80
6738;DHT22;3406;49.902;8.596;2023-03-01T12:46:15;8.40;46.50
6738;DHT22;3406;49.902;8.596;2023-03-01T12:48:52;8.40;46.10
6738;DHT22;3406;49.902;8.596;2023-03-01T12:51:23;8.40;46.00
6738;DHT22;3406;49.902;8.596;2023-03-01T12:53:54;8.50;46.00
6738;DHT22;3406;49.902;8.596;2023-03-01T12:56:24;8.50;45.60
6738;DHT22;3406;49.902;8.596;2023-03-01T12:58:59;8.60;45.60
6738;DHT22;3406;49.902;8.596;2023-03-01T13:01:36;8.70;45.50
6738;DHT22;3406;49.902;8.596;2023-03-01T13:04:21;8.80;45.30
6738;DHT22;3406;49.902;8.596;2023-03-01T13:06:59;8.80;45.00
6738;DHT22;3406;49.902;8.596;2023-03-01T13:09:35;8.80;45.00
6738;DHT22;3406;49.902;8.596;2023-03-01T13:12:03;8.90;44.90
6738;DHT22;3406;49.902;8.596;2023-03-01T13:14:37;8.90;44.80
6738;DHT22;3406;49.902;8.596;2023-03-01T13:17:39;8.90;44.70
6738;DHT22;3406;49.902;8.596;2023-03-01T13:20:13;8.90;44.70
6738;DHT22;3406;49.902;8.596;2023-03-01T13:22:40;8.90;44.80
6738;DHT22;3406;49.902;8.596;2023-03-01T13:25:15;8.90;44.60
6738;DHT22;3406;49.902;8.596;2023-03-01T13:27:43;8.90;44.60
6738;DHT22;3406;49.902;8.596;2023-03-01T13:30:39;8.90;44.50
6738;DHT22;3406;49.902;8.596;2023-03-01T13:36:45;8.90;44.20
6738;DHT22;3406;49.902;8.596;2023-03-01T13:39:28;8.90;44.30
6738;DHT22;3406;49.902;8.596;2023-03-01T13:41:59;9.00;44.30
6738;DHT22;3406;49.902;8.596;2023-03-01T13:44:33;9.00;44.10
6738;DHT22;3406;49.902;8.596;2023-03-01T13:47:14;9.00;43.90
6738;DHT22;3406;49.902;8.596;2023-03-01T13:49:45;9.00;43.80
6738;DHT22;3406;49.902;8.596;2023-03-01T13:52:35;9.10;43.60
6738;DHT22;3406;49.902;8.596;2023-03-01T13:55:04;9.10;43.40
6738;DHT22;3406;49.902;8.596;2023-03-01T13:57:35;9.10;43.40
6738;DHT22;3406;49.902;8.596;2023-03-01T14:00:05;9.10;43.40
6738;DHT22;3406;49.902;8.596;2023-03-01T14:02:32;9.20;43.40
6738;DHT22;3406;49.902;8.596;2023-03-01T14:05:01;9.20;43.40
6738;DHT22;3406;49.902;8.596;2023-03-01T14:07:28;9.30;43.30
6738;DHT22;3406;49.902;8.596;2023-03-01T14:09:58;9.30;43.10
6738;DHT22;3406;49.902;8.596;2023-03-01T14:12:34;9.30;43.10
6738;DHT22;3406;49.902;8.596;2023-03-01T14:15:06;9.30;43.20
6738;DHT22;3406;49.902;8.596;2023-03-01T14:17:55;9.40;43.20
6738;DHT22;3406;49.902;8.596;2023-03-01T14:20:26;9.40;43.10
6738;DHT22;3406;49.902;8.596;2023-03-01T14:22:55;9.40;42.80
6738;DHT22;3406;49.902;8.596;2023-03-01T14:25:28;9.40;42.70
6738;DHT22;3406;49.902;8.596;2023-03-01T14:28:00;9.40;42.60
6738;DHT22;3406;49.902;8.596;2023-03-01T14:30:32;9.40;42.60
6738;DHT22;3406;49.902;8.596;2023-03-01T14:33:02;9.40;42.60
6738;DHT22;3406;49.902;8.596;2023-03-01T14:35:32;9.40;42.50
6738;DHT22;3406;49.902;8.596;2023-03-01T14:37:59;9.40;42.50
6738;DHT22;3406;49.902;8.596;2023-03-01T14:40:29;9.40;42.40
6738;DHT22;3406;49.902;8.596;2023-03-01T14:42:59;9.50;42.50
6738;DHT22;3406;49.902;8.596;2023-03-01T14:45:28;9.50;42.40
6738;DHT22;3406;49.902;8.596;2023-03-01T14:47:59;9.50;42.30
6738;DHT22;3406;49.902;8.596;2023-03-01T14:50:28;9.50;42.30
6738;DHT22;3406;49.902;8.596;2023-03-01T14:52:58;9.40;42.30
6738;DHT22;3406;49.902;8.596;2023-03-01T14:55:29;9.50;42.40
6738;DHT22;3406;49.902;8.596;2023-03-01T14:57:58;9.50;42.50
6738;DHT22;3406;49.902;8.596;2023-03-01T15:00:27;9.50;42.50
6738;DHT22;3406;49.902;8.596;2023-03-01T15:02:56;9.50;42.60
6738;DHT22;3406;49.902;8.596;2023-03-01T15:05:26;9.50;42.50
6738;DHT22;3406;49.902;8.596;2023-03-01T15:07:55;9.50;42.40
6738;DHT22;3406;49.902;8.596;2023-03-01T15:10:25;9.40;42.30
6738;DHT22;3406;49.902;8.596;2023-03-01T15:12:52;9.50;42.40
6738;DHT22;3406;49.902;8.596;2023-03-01T15:15:30;9.50;42.50
6738;DHT22;3406;49.902;8.596;2023-03-01T15:17:59;9.50;42.40
6738;DHT22;3406;49.902;8.596;2023-03-01T15:20:27;9.40;42.20
6738;DHT22;3406;49.902;8.596;2023-03-01T15:22:56;9.40;42.30
6738;DHT22;3406;49.902;8.596;2023-03-01T15:25:25;9.40;42.40
6738;DHT22;3406;49.902;8.596;2023-03-01T15:27:53;9.40;42.50
6738;DHT22;3406;49.902;8.596;2023-03-01T15:30:25;9.40;42.40
6738;DHT22;3406;49.902;8.596;2023-03-01T15:33:17;9.40;42.30
6738;DHT22;3406;49.902;8.596;2023-03-01T15:35:46;9.40;42.40
6738;DHT22;3406;49.902;8.596;2023-03-01T15:38:35;9.40;42.50
6738;DHT22;3406;49.902;8.596;2023-03-01T15:41:19;9.40;42.50
6738;DHT22;3406;49.902;8.596;2023-03-01T15:43:47;9.30;42.40
6738;DHT22;3406;49.902;8.596;2023-03-01T15:46:22;9.30;42.40
6738;DHT22;3406;49.902;8.596;2023-03-01T15:48:52;9.40;42.60
6738;DHT22;3406;49.902;8.596;2023-03-01T15:51:26;9.40;42.60
6738;DHT22;3406;49.902;8.596;2023-03-01T15:53:55;9.40;42.60
6738;DHT22;3406;49.902;8.596;2023-03-01T15:56:23;9.40;42.70
6738;DHT22;3406;49.902;8.596;2023-03-01T15:58:50;9.40;42.80
6738;DHT22;3406;49.902;8.596;2023-03-01T16:01:17;9.30;42.80
6738;DHT22;3406;49.902;8.596;2023-03-01T16:03:45;9.30;42.90
6738;DHT22;3406;49.902;8.596;2023-03-01T16:06:12;9.30;42.90
6738;DHT22;3406;49.902;8.596;2023-03-01T16:08:39;9.30;43.10
6738;DHT22;3406;49.902;8.596;2023-03-01T16:11:13;9.20;43.00
6738;DHT22;3406;49.902;8.596;2023-03-01T16:13:40;9.20;43.20
6738;DHT22;3406;49.902;8.596;2023-03-01T16:22:52;8.80;43.30
6738;DHT22;3406;49.902;8.596;2023-03-01T16:25:20;8.70;43.50
6738;DHT22;3406;49.902;8.596;2023-03-01T16:27:49;8.70;43.70
6738;DHT22;3406;49.902;8.596;2023-03-01T16:30:17;8.60;43.80
6738;DHT22;3406;49.902;8.596;2023-03-01T16:32:46;8.50;43.80
6738;DHT22;3406;49.902;8.596;2023-03-01T16:35:15;8.50;44.10
6738;DHT22;3406;49.902;8.596;2023-03-01T16:37:59;8.40;44.20
6738;DHT22;3406;49.902;8.596;2023-03-01T16:40:27;8.40;44.30
6738;DHT22;3406;49.902;8.596;2023-03-01T16:42:55;8.30;44.50
6738;DHT22;3406;49.902;8.596;2023-03-01T16:45:26;8.30;44.60
6738;DHT22;3406;49.902;8.596;2023-03-01T16:47:52;8.20;44.70
6738;DHT22;3406;49.902;8.596;2023-03-01T16:50:19;8.20;44.80
6738;DHT22;3406;49.902;8.596;2023-03-01T16:52:46;8.10;44.90
6738;DHT22;3406;49.902;8.596;2023-03-01T16:55:14;8.00;45.00
6738;DHT22;3406;49.902;8.596;2023-03-01T16:57:40;8.00;45.20